createdAt,value
2022-09-06T00:00:54.409Z,52.10
2022-09-06T00:03:49.028Z,52.39
2022-09-06T00:07:06.423Z,52.20
2022-09-06T00:10:52.618Z,51.95
2022-09-06T00:13:22.470Z,52.40
2022-09-06T00:16:45.596Z,52.72
2022-09-06T00:19:25.982Z,52.09
2022-09-06T00:22:30.566Z,52.15
2022-09-06T00:31:21.646Z,52.68
2022-09-06T00:32:57.045Z,52.32
2022-09-06T00:35:57.224Z,53.51
2022-09-06T00:39:24.580Z,52.95
2022-09-06T00:42:20.955Z,53.44
2022-09-06T00:46:16.994Z,53.42
2022-09-06T00:49:08.520Z,54.36
2022-09-06T00:52:11.224Z,54.36
2022-09-06T00:55:29.945Z,53.21
2022-09-06T00:58:26.863Z,53.88
2022-09-06T01:01:29.639Z,53.97
2022-09-06T01:04:42.523Z,54.64
2022-09-06T01:07:56.966Z,53.93
2022-09-06T01:11:08.599Z,55.21
2022-09-06T01:14:08.379Z,55.35
2022-09-06T01:17:13.340Z,55.35
2022-09-06T01:24:33.948Z,55.25
2022-09-06T01:27:24.887Z,54.62
2022-09-06T01:30:17.080Z,53.60
2022-09-06T01:33:15.717Z,54.37
2022-09-06T01:36:18.855Z,54.71
2022-09-06T01:39:15.223Z,55.21
2022-09-06T01:42:27.965Z,55.39
2022-09-06T01:45:40.419Z,55.24
2022-09-06T01:49:16.291Z,55.29
2022-09-06T01:51:55.061Z,55.99
2022-09-06T01:56:17.636Z,55.39
2022-09-06T01:58:20.839Z,54.54
2022-09-06T02:01:23.040Z,55.72
2022-09-06T02:04:20.318Z,56.37
2022-09-06T02:07:23.031Z,56.71
2022-09-06T02:10:47.945Z,55.38
2022-09-06T02:14:00.991Z,54.32
2022-09-06T02:17:09.146Z,54.74
2022-09-06T02:22:57.207Z,55.34
2022-09-06T02:25:58.827Z,56.52
2022-09-06T02:28:45.009Z,55.14
2022-09-06T02:31:43.815Z,55.70
2022-09-06T02:35:04.148Z,55.88
2022-09-06T02:37:37.501Z,56.72
2022-09-06T02:40:22.565Z,56.71
2022-09-06T02:46:51.767Z,56.40
2022-09-06T02:49:39.176Z,56.30
2022-09-06T06:16:22.760Z,43.07
2022-09-06T06:26:20.005Z,40.94
2022-09-06T06:43:19.651Z,40.03
2022-09-06T06:46:21.044Z,40.17
2022-09-06T06:50:09.242Z,39.52
2022-09-06T06:53:24.417Z,38.44
2022-09-06T06:58:03.661Z,37.83
2022-09-06T07:02:05.738Z,37.32
2022-09-06T07:11:46.839Z,37.39
2022-09-06T07:18:47.517Z,36.11
2022-09-06T07:21:46.350Z,36.23
2022-09-06T07:24:41.300Z,35.68
2022-09-06T07:27:51.587Z,35.47
2022-09-06T07:38:28.606Z,34.65
2022-09-06T08:00:10.765Z,33.71
2022-09-06T08:02:55.666Z,34.03
2022-09-06T08:22:09.724Z,33.70
2022-09-06T08:30:35.132Z,32.67
2022-09-06T08:40:35.263Z,31.79
2022-09-06T08:43:40.302Z,31.71
2022-09-06T08:46:13.128Z,31.63
2022-09-06T08:48:44.449Z,31.92
2022-09-06T08:51:38.352Z,31.30
2022-09-06T08:54:17.322Z,31.24
2022-09-06T08:57:08.981Z,31.13
2022-09-06T08:59:40.716Z,31.17
2022-09-06T09:02:16.645Z,31.27
2022-09-06T09:04:48.737Z,30.70
2022-09-06T09:07:23.178Z,30.40
2022-09-06T09:09:59.193Z,30.41
2022-09-06T09:12:34.592Z,30.31
2022-09-06T09:15:20.263Z,30.03
2022-09-06T09:18:15.536Z,30.28
2022-09-06T09:21:42.052Z,30.51
2022-09-06T09:24:16.343Z,30.64
2022-09-06T09:27:34.143Z,30.48
2022-09-06T09:33:39.305Z,30.74
2022-09-06T09:36:35.343Z,30.07
2022-09-06T09:39:27.804Z,30.02
2022-09-06T09:42:46.162Z,29.20
2022-09-06T09:46:33.973Z,29.16
2022-09-06T09:54:01.713Z,28.58
2022-09-06T09:57:25.036Z,28.85
2022-09-06T10:01:16.038Z,28.48
2022-09-06T10:05:44.994Z,28.53
2022-09-06T10:12:14.954Z,28.05
2022-09-06T10:15:02.511Z,27.73
2022-09-06T10:18:10.045Z,27.44
2022-09-06T10:25:25.850Z,27.57
2022-09-06T10:28:12.325Z,27.75
2022-09-06T10:31:30.488Z,27.70
2022-09-06T10:34:10.894Z,27.39
2022-09-06T10:37:33.785Z,27.25
2022-09-06T10:40:49.099Z,27.55
2022-09-06T10:43:42.322Z,27.18
2022-09-06T10:46:27.527Z,27.13
2022-09-06T10:48:58.549Z,26.89
2022-09-06T10:51:39.307Z,27.16
2022-09-06T10:54:28.333Z,26.95
2022-09-06T11:00:14.682Z,28.81
2022-09-06T11:02:48.490Z,29.81
2022-09-06T11:11:39.324Z,29.51
2022-09-06T11:14:25.545Z,29.38
2022-09-06T11:17:13.697Z,29.02
2022-09-06T11:20:06.130Z,28.51
2022-09-06T11:22:50.764Z,27.98
2022-09-06T11:25:41.732Z,28.09
2022-09-06T11:28:17.135Z,27.83
2022-09-06T11:30:51.354Z,27.95
2022-09-06T11:33:26.659Z,28.90
2022-09-06T11:36:26.183Z,28.46
2022-09-06T11:38:58.863Z,27.80
2022-09-06T11:41:31.941Z,27.61
2022-09-06T11:44:01.049Z,27.22
2022-09-06T11:46:33.429Z,27.53
2022-09-06T11:49:33.398Z,28.26
2022-09-06T11:52:04.020Z,27.35
2022-09-06T11:54:43.095Z,27.88
2022-09-06T11:57:22.677Z,27.70
2022-09-06T12:00:00.653Z,27.34
2022-09-06T12:02:36.540Z,27.10
2022-09-06T12:05:09.799Z,26.56
2022-09-06T12:07:39.166Z,26.73
2022-09-06T12:10:40.960Z,27.39
2022-09-06T12:13:50.752Z,27.85
2022-09-06T12:16:19.116Z,27.25
2022-09-06T12:18:47.543Z,26.66
2022-09-06T12:21:34.026Z,26.92
2022-09-06T12:24:03.721Z,27.23
2022-09-06T12:26:55.718Z,27.60
2022-09-06T12:29:27.018Z,26.84
2022-09-06T12:32:01.867Z,26.06
2022-09-06T12:34:33.581Z,25.99
2022-09-06T12:37:08.854Z,25.85
2022-09-06T12:40:02.119Z,26.08
2022-09-06T12:42:38.096Z,26.01
2022-09-06T12:45:08.140Z,26.57
2022-09-06T12:47:41.943Z,26.37
2022-09-06T12:50:20.354Z,25.99
2022-09-06T12:52:59.405Z,25.37
2022-09-06T12:55:30.963Z,26.01
2022-09-06T12:58:08.243Z,26.04
2022-09-06T13:00:40.602Z,25.68
2022-09-06T13:03:30.827Z,25.78
2022-09-06T13:06:02.623Z,25.68
2022-09-06T13:08:38.892Z,25.65
2022-09-06T13:11:11.037Z,26.16
2022-09-06T13:13:50.446Z,26.16
2022-09-06T13:16:28.834Z,26.61
2022-09-06T13:19:11.933Z,26.68
2022-09-06T13:21:41.963Z,26.47
2022-09-06T13:24:23.377Z,26.92
2022-09-06T13:26:52.630Z,27.59
2022-09-06T13:29:26.017Z,27.96
2022-09-06T13:31:56.124Z,27.86
2022-09-06T13:34:31.286Z,27.86
2022-09-06T13:37:08.673Z,28.32
2022-09-06T13:39:38.384Z,28.27
2022-09-06T13:42:08.328Z,28.10
2022-09-06T13:44:39.443Z,27.91
2022-09-06T13:47:07.399Z,27.76
2022-09-06T13:49:35.068Z,28.23
2022-09-06T13:52:08.293Z,28.66
2022-09-06T13:54:36.860Z,28.88
2022-09-06T13:57:05.010Z,28.87
2022-09-06T13:59:33.064Z,28.73
2022-09-06T14:02:07.043Z,29.35
2022-09-06T14:04:36.364Z,29.22
2022-09-06T14:07:05.229Z,28.82
2022-09-06T14:09:33.786Z,29.31
2022-09-06T14:12:02.621Z,29.33
2022-09-06T14:14:34.043Z,30.07
2022-09-06T14:17:02.098Z,29.68
2022-09-06T14:19:30.223Z,29.78
2022-09-06T14:21:58.364Z,29.76
2022-09-06T14:24:27.324Z,30.52
2022-09-06T14:26:55.792Z,31.19
2022-09-06T14:29:23.869Z,30.78
2022-09-06T14:31:53.024Z,30.72
2022-09-06T14:34:21.835Z,30.81
2022-09-06T14:36:55.567Z,30.86
2022-09-06T14:39:24.007Z,30.92
2022-09-06T14:41:52.389Z,31.33
2022-09-06T14:44:22.242Z,31.19
2022-09-06T14:46:53.583Z,30.71
2022-09-06T14:49:23.668Z,30.62
2022-09-06T14:51:53.935Z,30.86
2022-09-06T14:54:26.106Z,30.88
2022-09-06T14:56:56.724Z,30.55
2022-09-06T14:59:26.256Z,30.70
2022-09-06T15:01:55.106Z,30.69
2022-09-06T15:04:23.490Z,31.47
2022-09-06T15:06:52.516Z,34.31
2022-09-06T15:09:21.013Z,35.99
2022-09-06T15:11:51.863Z,35.02
2022-09-06T15:14:29.797Z,35.36
2022-09-06T15:17:00.228Z,37.53
2022-09-06T15:19:30.140Z,40.03
2022-09-06T15:22:00.420Z,46.42
2022-09-06T15:24:29.438Z,49.64
2022-09-06T15:27:00.285Z,52.39
2022-09-06T15:29:29.381Z,50.90
2022-09-06T15:32:00.890Z,51.28
2022-09-06T15:34:35.357Z,48.55
2022-09-06T15:37:04.843Z,55.09
2022-09-06T15:39:36.447Z,57.97
2022-09-06T15:42:05.391Z,60.18
2022-09-06T15:44:34.414Z,58.08
2022-09-06T15:47:05.129Z,55.88
2022-09-06T15:49:32.994Z,57.06
2022-09-06T15:52:03.841Z,57.03
2022-09-06T15:54:50.653Z,57.46
2022-09-06T15:57:19.198Z,57.07
2022-09-06T15:59:47.856Z,56.65
2022-09-06T16:02:16.260Z,58.18
2022-09-06T16:04:45.997Z,55.60
2022-09-06T16:07:14.428Z,58.18
2022-09-06T16:09:42.666Z,58.30
2022-09-06T16:12:12.188Z,58.86
2022-09-06T16:14:41.147Z,57.55
2022-09-06T16:17:10.151Z,58.46
2022-09-06T16:19:40.184Z,56.10
2022-09-06T16:22:07.878Z,58.37
2022-09-06T16:24:35.988Z,59.08
2022-09-06T16:27:07.382Z,60.38
2022-09-06T16:29:38.473Z,58.18
2022-09-06T16:32:07.912Z,59.06
2022-09-06T16:34:40.679Z,59.39
2022-09-06T16:37:09.709Z,56.63
2022-09-06T16:39:38.791Z,58.53
2022-09-06T16:42:07.874Z,59.48
2022-09-06T16:44:38.341Z,59.74
2022-09-06T16:47:06.365Z,60.33
2022-09-06T16:49:37.542Z,58.94
2022-09-06T16:52:06.454Z,57.42
2022-09-06T16:54:34.853Z,56.56
2022-09-06T16:57:03.174Z,57.05
2022-09-06T16:59:31.273Z,57.46
2022-09-06T17:01:59.596Z,58.72
2022-09-06T17:04:28.945Z,59.72
2022-09-06T17:06:57.211Z,58.09
2022-09-06T17:09:25.383Z,55.72
2022-09-06T17:11:55.433Z,58.75
2022-09-06T17:14:24.101Z,59.58
2022-09-06T17:17:07.621Z,61.52
2022-09-06T17:19:38.079Z,60.10
2022-09-06T17:22:06.545Z,58.82
2022-09-06T17:24:35.145Z,61.57
2022-09-06T17:27:05.183Z,61.60
2022-09-06T17:29:33.522Z,60.93
2022-09-06T17:32:05.468Z,61.95
2022-09-06T17:34:38.167Z,63.27
2022-09-06T17:37:08.533Z,66.59
2022-09-06T17:39:43.213Z,68.78
2022-09-06T17:42:11.984Z,69.17
2022-09-06T17:44:41.337Z,67.24
2022-09-06T17:47:13.387Z,67.43
2022-09-06T17:49:43.015Z,67.22
2022-09-06T17:52:11.952Z,67.63
2022-09-06T17:54:40.516Z,67.24
2022-09-06T17:57:08.920Z,66.25
2022-09-06T17:59:38.694Z,65.18
2022-09-06T18:02:07.987Z,64.46
2022-09-06T18:04:39.155Z,64.48
2022-09-06T18:07:07.346Z,65.54
2022-09-06T18:09:40.975Z,64.42
2022-09-06T18:12:09.767Z,64.98
2022-09-06T18:14:39.840Z,66.02
2022-09-06T18:17:10.215Z,65.63
2022-09-06T18:19:39.805Z,64.46
2022-09-06T18:22:12.014Z,63.84
2022-09-06T18:24:42.580Z,64.26
2022-09-06T18:27:10.665Z,63.27
2022-09-06T18:29:39.727Z,61.93
2022-09-06T18:32:10.097Z,62.47
2022-09-06T18:34:39.686Z,60.78
2022-09-06T18:37:09.714Z,60.06
2022-09-06T18:39:38.034Z,59.96
2022-09-06T18:42:11.595Z,60.55
2022-09-06T18:44:44.159Z,60.97
2022-09-06T18:47:13.538Z,64.42
2022-09-06T18:49:44.316Z,66.19
2022-09-06T18:52:13.492Z,65.85
2022-09-06T18:54:44.319Z,65.56
2022-09-06T18:57:15.959Z,64.15
2022-09-06T18:59:44.886Z,62.69
2022-09-06T19:02:13.474Z,61.62
2022-09-06T19:04:42.153Z,60.51
2022-09-06T19:07:12.645Z,60.94
2022-09-06T19:09:43.311Z,61.77
2022-09-06T19:12:12.744Z,60.69
2022-09-06T19:14:42.030Z,61.15
2022-09-06T19:17:13.860Z,60.95
2022-09-06T19:19:44.147Z,61.52
2022-09-06T19:22:12.226Z,62.91
2022-09-06T19:24:40.725Z,64.25
2022-09-06T19:27:09.581Z,63.07
2022-09-06T19:29:39.349Z,63.56
2022-09-06T19:32:10.417Z,62.86
2022-09-06T19:34:39.832Z,63.62
2022-09-06T19:37:08.099Z,63.43
2022-09-06T19:39:39.140Z,64.26
2022-09-06T19:42:09.640Z,65.53
2022-09-06T19:44:39.278Z,65.94
2022-09-06T19:47:09.320Z,66.08
2022-09-06T19:49:38.156Z,66.81
2022-09-06T19:54:41.316Z,65.66
2022-09-06T19:57:10.022Z,65.93
2022-09-06T19:59:39.562Z,67.35
2022-09-06T20:02:09.890Z,67.87
2022-09-06T20:04:41.938Z,68.60
2022-09-06T20:07:10.688Z,68.75
2022-09-06T20:09:43.254Z,69.58
2022-09-06T20:12:12.552Z,69.24
2022-09-06T20:14:42.783Z,69.02
2022-09-06T20:17:32.772Z,69.07
2022-09-06T20:20:04.764Z,68.69
2022-09-06T20:22:34.579Z,67.27
2022-09-06T20:25:06.661Z,68.20
2022-09-06T20:27:39.300Z,69.14
2022-09-06T20:30:13.748Z,68.21
2022-09-06T20:32:46.951Z,69.17
2022-09-06T20:35:18.751Z,69.01
2022-09-06T20:37:48.922Z,67.11
2022-09-06T20:40:18.900Z,66.52
2022-09-06T20:42:47.937Z,66.49
2022-09-06T20:45:25.658Z,66.38
2022-09-06T20:47:58.142Z,67.24
2022-09-06T20:50:28.240Z,68.04
2022-09-06T20:52:56.710Z,67.50
2022-09-06T20:55:26.463Z,66.78
2022-09-06T20:57:57.747Z,66.37
2022-09-06T21:00:27.035Z,65.15
2022-09-06T21:02:57.971Z,65.97
2022-09-06T21:05:26.490Z,66.78
2022-09-06T21:07:54.712Z,65.61
2022-09-06T21:10:23.334Z,65.48
2022-09-06T21:12:52.601Z,66.24
2022-09-06T21:15:21.498Z,65.95
2022-09-06T21:17:50.397Z,66.05
2022-09-06T21:20:18.795Z,66.90
2022-09-06T21:22:47.371Z,66.59
2022-09-06T21:25:16.319Z,66.24
2022-09-06T21:27:47.057Z,65.47
2022-09-06T21:30:14.972Z,65.10
2022-09-06T21:32:43.471Z,65.10
2022-09-06T21:35:14.035Z,64.56
2022-09-06T21:37:43.951Z,63.83
2022-09-06T21:40:12.436Z,64.29
2022-09-06T21:42:42.736Z,65.00
2022-09-06T21:45:11.337Z,64.91
2022-09-06T21:47:42.808Z,64.04
2022-09-06T21:52:41.793Z,62.94
2022-09-06T21:55:14.932Z,64.40
2022-09-06T21:57:46.569Z,64.87
2022-09-06T22:00:15.565Z,64.00
2022-09-06T22:02:48.471Z,64.41
2022-09-06T22:05:21.436Z,63.87
2022-09-06T22:07:50.145Z,63.50
2022-09-06T22:10:20.684Z,63.14
2022-09-06T22:12:56.746Z,62.80
2022-09-06T22:15:31.715Z,62.98
2022-09-06T22:18:04.703Z,62.41
2022-09-06T22:20:39.651Z,62.72
2022-09-06T22:23:10.741Z,63.76
2022-09-06T22:25:44.817Z,62.06
2022-09-06T22:28:15.647Z,61.46
2022-09-06T22:30:47.366Z,61.85
2022-09-06T22:33:20.078Z,62.80
2022-09-06T22:35:49.460Z,61.56
2022-09-06T22:38:21.556Z,61.08
2022-09-06T22:40:55.813Z,61.57
2022-09-06T22:43:29.792Z,62.56
2022-09-06T22:46:06.470Z,63.08
2022-09-06T22:48:38.531Z,62.46
2022-09-06T22:51:10.910Z,63.04
2022-09-06T22:53:47.391Z,63.17
2022-09-06T22:56:16.824Z,63.49
2022-09-06T22:58:48.857Z,62.71
2022-09-06T23:01:20.146Z,62.38
2022-09-06T23:03:53.556Z,62.72
2022-09-06T23:06:23.495Z,62.28
2022-09-06T23:08:55.639Z,61.96
2022-09-06T23:11:28.538Z,61.76
2022-09-06T23:14:01.401Z,61.59
2022-09-06T23:16:31.256Z,62.26
2022-09-06T23:19:05.157Z,62.50
2022-09-06T23:21:34.785Z,63.16
2022-09-06T23:24:08.989Z,62.67
2022-09-06T23:26:40.971Z,62.36
2022-09-06T23:29:15.048Z,61.76
2022-09-06T23:31:47.693Z,61.14
2022-09-06T23:34:25.048Z,60.95
2022-09-06T23:37:00.570Z,62.74
2022-09-06T23:39:32.737Z,64.56
2022-09-06T23:42:05.057Z,63.47
2022-09-06T23:44:37.979Z,62.17
2022-09-06T23:47:10.702Z,63.38
2022-09-06T23:49:46.850Z,62.57
2022-09-06T23:52:17.365Z,61.63
2022-09-06T23:54:49.813Z,61.86
2022-09-06T23:57:20.458Z,63.11
2022-09-06T23:59:50.845Z,62.57
